Time;durP1;ratioP1;P1;durP2;ratioP2;P2;SDS_P1;SDS_P2;PMS_P1;PMS_P2;Temp;Humidity;BMP_temperature;BMP_pressure;BME280_temperature;BME280_humidity;BME280_pressure;Samples;Min_cycle;Max_cycle;Signal;HPM_P1;HPM_P2
2023/11/13 00:00:07;;;;;;;24.45;18.17;;;;;;;6.45;82.12;94585.50;5094787;28;20020;-66
2023/11/13 00:02:33;;;;;;;22.85;16.65;;;;;;;6.58;81.84;94601.78;5094870;28;20036;-67
2023/11/13 00:04:58;;;;;;;23.27;15.88;;;;;;;6.57;81.44;94576.06;5113459;28;20551;-66
2023/11/13 00:07:23;;;;;;;20.23;14.80;;;;;;;6.60;81.13;94574.09;5112816;28;20073;-66
2023/11/13 00:09:49;;;;;;;19.63;13.73;;;;;;;6.44;81.11;94566.59;5094781;28;20448;-66
2023/11/13 00:12:14;;;;;;;22.45;14.63;;;;;;;6.21;82.11;94604.34;5113572;28;20081;-66
2023/11/13 00:14:40;;;;;;;21.63;14.55;;;;;;;6.20;82.43;94589.78;5111709;28;20043;-67
2023/11/13 00:17:05;;;;;;;20.13;14.27;;;;;;;6.49;81.17;94597.22;5111535;28;20035;-66
2023/11/13 00:19:31;;;;;;;20.92;14.45;;;;;;;6.49;80.86;94584.34;5111046;28;20035;-66
2023/11/13 00:21:57;;;;;;;19.33;12.90;;;;;;;6.46;80.34;94574.22;5111811;28;20102;-66
2023/11/13 00:24:22;;;;;;;19.55;13.43;;;;;;;6.42;80.46;94575.38;5110801;28;20485;-66
2023/11/13 00:26:48;;;;;;;20.23;13.68;;;;;;;6.33;79.91;94583.78;5093778;28;20036;-66
2023/11/13 00:29:13;;;;;;;19.05;12.70;;;;;;;6.29;80.64;94592.66;5112505;28;20028;-66
2023/11/13 00:31:39;;;;;;;17.42;12.98;;;;;;;6.32;80.64;94598.41;5113075;28;20031;-66
2023/11/13 00:34:04;;;;;;;19.58;13.02;;;;;;;6.32;80.29;94587.28;5112794;28;20034;-66
2023/11/13 00:36:30;;;;;;;16.33;11.82;;;;;;;6.28;80.20;94586.66;5145292;27;20035;-66
2023/11/13 00:38:55;;;;;;;17.75;12.77;;;;;;;6.10;80.29;94586.19;5111101;28;20027;-66
2023/11/13 00:41:21;;;;;;;17.73;13.13;;;;;;;5.93;81.42;94581.31;5093829;28;20027;-66
2023/11/13 00:43:46;;;;;;;15.52;11.40;;;;;;;6.14;80.86;94594.53;5145530;27;20101;-66
2023/11/13 00:46:12;;;;;;;15.65;11.20;;;;;;;6.14;81.25;94600.53;5127446;27;20401;-66
2023/11/13 00:48:37;;;;;;;14.98;11.60;;;;;;;6.08;81.38;94590.63;5093573;28;20570;-66
2023/11/13 00:51:03;;;;;;;15.32;10.88;;;;;;;5.96;81.52;94591.44;5111066;28;20031;-66
2023/11/13 00:53:36;;;;;;;15.18;10.18;;;;;;;6.04;81.53;94599.50;5093693;28;20038;-66
2023/11/13 00:56:01;;;;;;;16.70;10.73;;;;;;;6.03;81.90;94597.84;5112205;28;20035;-66
2023/11/13 00:58:26;;;;;;;14.18;10.57;;;;;;;5.89;81.88;94598.75;5107385;28;20036;-66
2023/11/13 01:00:52;;;;;;;13.68;10.13;;;;;;;5.79;82.90;94593.41;5137111;27;20445;-66
2023/11/13 01:03:17;;;;;;;14.68;9.65;;;;;;;5.94;82.06;94589.00;5073249;28;20031;-66
2023/11/13 01:05:43;;;;;;;14.52;10.73;;;;;;;6.01;82.12;94595.38;5106359;28;20035;-66
2023/11/13 01:08:08;;;;;;;17.77;12.40;;;;;;;6.10;81.77;94593.09;5111976;28;20031;-66
2023/11/13 01:10:34;;;;;;;19.60;10.82;;;;;;;6.11;82.14;94595.56;5093283;28;20518;-66
2023/11/13 01:12:59;;;;;;;14.55;10.75;;;;;;;6.06;82.35;94602.81;5110665;28;20051;-66
2023/11/13 01:15:25;;;;;;;13.32;10.38;;;;;;;5.99;82.79;94596.41;5093582;28;20031;-67
2023/11/13 01:17:50;;;;;;;14.70;9.75;;;;;;;5.91;83.36;94598.66;5111484;28;20040;-66
2023/11/13 01:20:18;;;;;;;14.48;9.70;;;;;;;6.02;83.46;94591.88;5110208;28;20031;-66
2023/11/13 01:22:43;;;;;;;14.20;9.18;;;;;;;6.13;82.53;94593.72;5093342;28;20031;-66
2023/11/13 01:25:09;;;;;;;11.82;8.23;;;;;;;6.11;81.95;94585.25;5110441;28;20048;-66
2023/11/13 01:27:34;;;;;;;12.98;8.65;;;;;;;6.04;82.56;94579.72;5110492;28;20421;-66
2023/11/13 01:30:00;;;;;;;12.20;9.13;;;;;;;6.11;82.83;94587.84;5110236;28;20417;-66
2023/11/13 01:32:25;;;;;;;12.02;8.48;;;;;;;6.18;82.77;94596.78;5109825;28;20069;-66
2023/11/13 01:34:50;;;;;;;12.38;8.57;;;;;;;6.15;82.84;94581.53;5093139;28;20035;-66
2023/11/13 01:37:17;;;;;;;14.20;8.80;;;;;;;6.13;82.55;94561.94;5111196;28;20027;-66
2023/11/13 01:39:43;;;;;;;13.85;8.60;;;;;;;6.26;82.63;94573.88;5093172;28;20035;-66
2023/11/13 01:42:08;;;;;;;13.05;8.63;;;;;;;6.26;82.21;94568.72;5110608;28;20032;-66
2023/11/13 01:44:34;;;;;;;11.98;9.18;;;;;;;6.26;82.30;94573.88;5092819;28;20056;-66
2023/11/13 01:46:59;;;;;;;11.82;8.30;;;;;;;6.11;81.67;94550.91;5093406;28;20027;-66
2023/11/13 01:49:25;;;;;;;13.02;8.98;;;;;;;6.25;81.65;94569.66;5109255;28;20417;-66
2023/11/13 01:51:50;;;;;;;11.52;8.57;;;;;;;6.33;81.09;94583.78;5110014;28;20038;-66
2023/11/13 01:54:16;;;;;;;11.23;7.75;;;;;;;6.29;80.72;94569.44;5109335;28;20038;-66
2023/11/13 01:56:41;;;;;;;11.48;8.18;;;;;;;6.13;81.28;94560.19;5108125;28;20493;-66
2023/11/13 01:59:08;;;;;;;13.15;8.23;;;;;;;6.24;81.58;94574.91;5107851;28;20032;-66
2023/11/13 02:01:34;;;;;;;11.50;8.02;;;;;;;6.14;81.96;94579.06;5089167;28;20031;-66
2023/11/13 02:03:59;;;;;;;12.18;8.10;;;;;;;6.20;82.02;94586.38;5107314;28;20043;-66
2023/11/13 02:06:24;;;;;;;11.60;8.85;;;;;;;6.28;81.26;94586.66;5091079;28;20034;-66
2023/11/13 02:08:50;;;;;;;13.07;7.38;;;;;;;6.23;81.29;94589.56;5088814;28;20044;-66
2023/11/13 02:11:16;;;;;;;10.40;7.95;;;;;;;6.23;81.75;94599.06;5088080;28;20027;-66
2023/11/13 02:13:42;;;;;;;13.63;8.55;;;;;;;6.12;81.86;94599.78;5092040;28;20043;-67
2023/11/13 02:16:12;;;;;;;12.45;8.60;;;;;;;6.19;81.76;94619.09;5106512;28;20035;-66
2023/11/13 02:18:37;;;;;;;11.07;8.15;;;;;;;5.99;81.34;94580.91;5107241;28;20111;-66
2023/11/13 02:21:03;;;;;;;12.55;8.38;;;;;;;6.20;81.29;94609.59;5109629;28;20110;-66
2023/11/13 02:23:28;;;;;;;13.00;8.25;;;;;;;6.08;81.74;94600.94;5108805;28;20047;-66
2023/11/13 02:25:57;;;;;;;13.60;9.68;;;;;;;6.00;81.90;94588.56;5106141;28;20024;-66
2023/11/13 02:28:23;;;;;;;12.05;8.45;;;;;;;6.03;82.02;94587.53;5109538;28;20035;-66
2023/11/13 02:30:48;;;;;;;10.38;8.15;;;;;;;5.88;82.55;94563.59;5109471;28;20023;-66
2023/11/13 02:33:14;;;;;;;12.43;8.50;;;;;;;5.89;82.79;94582.47;5109376;28;20040;-66
2023/11/13 02:35:39;;;;;;;11.65;8.60;;;;;;;5.95;82.98;94588.06;5109225;28;20096;-66
2023/11/13 02:38:05;;;;;;;11.98;8.30;;;;;;;5.92;82.52;94572.75;5092188;28;20524;-66
2023/11/13 02:40:31;;;;;;;12.15;8.60;;;;;;;6.06;82.29;94589.91;5092780;28;20027;-66
2023/11/13 02:42:56;;;;;;;11.45;7.70;;;;;;;6.06;82.17;94592.47;5109458;28;20031;-66
2023/11/13 02:45:23;;;;;;;11.27;8.02;;;;;;;6.09;82.14;94591.44;5110336;28;20442;-66
2023/11/13 02:47:49;;;;;;;12.82;9.80;;;;;;;6.10;81.67;94593.94;5092630;28;20093;-66
2023/11/13 02:50:15;;;;;;;13.50;9.82;;;;;;;5.95;82.35;94574.34;5109123;28;20493;-66
2023/11/13 02:52:40;;;;;;;15.07;9.20;;;;;;;5.96;82.18;94575.97;5108961;28;20046;-66
2023/11/13 02:55:06;;;;;;;14.48;9.55;;;;;;;5.93;82.47;94602.78;5110328;28;20497;-66
2023/11/13 02:57:32;;;;;;;13.20;9.70;;;;;;;5.93;82.61;94602.78;5110792;28;20440;-66
2023/11/13 02:59:57;;;;;;;17.33;10.43;;;;;;;6.00;82.78;94606.63;5110286;28;20406;-66
2023/11/13 03:02:23;;;;;;;17.13;10.63;;;;;;;5.88;82.78;94607.44;5088670;28;20036;-66
2023/11/13 03:04:48;;;;;;;14.52;10.23;;;;;;;5.95;83.02;94594.97;5093374;28;20028;-66
2023/11/13 03:07:14;;;;;;;16.35;10.40;;;;;;;5.94;82.79;94594.16;5096144;28;20031;-66
2023/11/13 03:09:39;;;;;;;14.82;10.32;;;;;;;5.98;82.79;94590.41;5096065;28;20043;-66
2023/11/13 03:12:05;;;;;;;13.63;10.07;;;;;;;5.97;82.33;94590.53;5114460;28;20066;-66
2023/11/13 03:14:30;;;;;;;14.20;10.30;;;;;;;5.85;83.09;94579.28;5129796;27;20477;-66
2023/11/13 03:16:56;;;;;;;15.48;10.23;;;;;;;5.91;82.75;94586.59;5096001;28;20469;-66
2023/11/13 03:19:22;;;;;;;14.23;9.75;;;;;;;5.83;83.16;94594.84;5095108;28;20039;-66
2023/11/13 03:21:47;;;;;;;16.95;10.68;;;;;;;5.91;83.29;94590.94;5095750;28;20409;-66
2023/11/13 03:24:13;;;;;;;14.10;9.70;;;;;;;6.10;82.10;94583.63;5112897;28;20084;-66
2023/11/13 03:26:38;;;;;;;12.80;9.35;;;;;;;5.89;82.25;94564.44;5107123;28;20051;-66
2023/11/13 03:29:04;;;;;;;14.25;8.30;;;;;;;5.92;82.31;94587.41;5126472;27;20093;-66
2023/11/13 03:31:29;;;;;;;13.98;8.60;;;;;;;5.80;82.34;94566.69;5092425;28;20081;-66
2023/11/13 03:33:55;;;;;;;12.73;8.27;;;;;;;6.09;82.54;94600.00;5092442;28;20082;-66
2023/11/13 03:36:20;;;;;;;12.68;8.48;;;;;;;6.24;81.94;94595.53;5126745;27;20032;-66
2023/11/13 03:38:46;;;;;;;13.23;9.80;;;;;;;6.16;81.72;94590.94;5132970;27;20035;-66
2023/11/13 03:41:11;;;;;;;25.60;16.20;;;;;;;6.12;82.00;94598.97;5129817;27;20558;-66
2023/11/13 03:43:37;;;;;;;18.67;12.10;;;;;;;6.03;82.58;94593.50;5146865;27;20140;-66
2023/11/13 03:46:02;;;;;;;12.02;8.82;;;;;;;6.07;82.25;94581.22;5147188;27;20035;-66
2023/11/13 03:48:28;;;;;;;12.80;9.48;;;;;;;6.04;82.31;94607.22;5146900;27;20505;-66
2023/11/13 03:50:53;;;;;;;12.70;9.32;;;;;;;5.95;82.79;94600.94;5146820;27;20031;-66
2023/11/13 03:53:19;;;;;;;12.82;9.00;;;;;;;6.24;82.30;94622.19;5129467;27;20108;-67
2023/11/13 03:55:45;;;;;;;11.48;8.57;;;;;;;6.24;82.00;94627.34;5146745;27;20413;-66
2023/11/13 03:58:10;;;;;;;11.23;7.57;;;;;;;6.30;81.63;94625.28;5113613;28;20035;-66
2023/11/13 04:00:37;;;;;;;11.57;7.80;;;;;;;6.26;81.64;94615.13;5112247;28;20024;-66
2023/11/13 04:03:03;;;;;;;12.27;7.10;;;;;;;5.99;82.74;94622.19;5111642;28;20034;-66
2023/11/13 04:05:29;;;;;;;7.90;5.88;;;;;;;5.99;82.22;94607.56;5110901;28;20433;-66
2023/11/13 04:07:55;;;;;;;8.23;5.57;;;;;;;6.05;82.40;94614.06;5077478;28;20043;-66
2023/11/13 04:10:20;;;;;;;9.07;6.07;;;;;;;6.15;82.49;94625.38;5112122;27;20039;-66
2023/11/13 04:12:46;;;;;;;7.55;5.75;;;;;;;6.07;81.51;94595.88;5129218;27;20040;-65
2023/11/13 04:15:12;;;;;;;8.27;5.97;;;;;;;6.19;81.67;94621.66;5114794;27;20031;-65
2023/11/13 04:17:37;;;;;;;8.80;5.93;;;;;;;6.15;81.65;94627.13;5073777;28;20032;-65
2023/11/13 04:20:06;;;;;;;7.50;5.60;;;;;;;6.20;81.11;94638.78;5108436;28;20028;-65
2023/11/13 04:22:35;;;;;;;8.77;6.35;;;;;;;6.16;81.09;94639.94;5091317;28;20418;-66
2023/11/13 04:25:01;;;;;;;9.13;5.93;;;;;;;6.11;81.68;94629.09;5125459;27;20036;-67
2023/11/13 04:27:27;;;;;;;8.80;6.13;;;;;;;5.88;81.87;94606.59;5140446;27;20405;-66
2023/11/13 04:29:52;;;;;;;10.60;6.25;;;;;;;6.03;82.40;94646.84;5128817;27;20039;-66
2023/11/13 04:32:19;;;;;;;8.77;6.30;;;;;;;6.10;81.94;94640.38;5111908;28;20123;-66
2023/11/13 04:34:44;;;;;;;9.68;7.60;;;;;;;6.08;82.28;94637.06;5094540;28;20040;-66
2023/11/13 04:37:10;;;;;;;10.93;8.30;;;;;;;5.80;82.45;94650.94;5111894;28;20417;-66
2023/11/13 04:39:35;;;;;;;12.95;9.63;;;;;;;5.77;83.42;94659.72;5111405;28;20032;-66
2023/11/13 04:42:01;;;;;;;11.23;8.20;;;;;;;5.95;82.83;94655.09;5111595;28;20081;-66
2023/11/13 04:44:26;;;;;;;10.13;8.35;;;;;;;6.12;82.27;94660.88;5127532;27;20050;-66
2023/11/13 04:46:51;;;;;;;11.55;8.55;;;;;;;6.11;82.66;94648.91;5111656;27;20508;-66
2023/11/13 04:49:17;;;;;;;10.18;8.13;;;;;;;6.15;81.84;94653.75;5077618;28;20035;-66
2023/11/13 04:51:43;;;;;;;11.45;8.00;;;;;;;6.23;81.97;94664.38;5094087;28;20039;-66
2023/11/13 04:54:08;;;;;;;12.07;8.57;;;;;;;6.05;82.25;94670.78;5111241;28;20028;-66
2023/11/13 04:56:34;;;;;;;12.30;8.90;;;;;;;6.09;82.71;94677.38;5145649;27;20054;-66
2023/11/13 04:58:59;;;;;;;13.77;9.27;;;;;;;6.13;82.30;94676.25;5112346;28;20490;-66
2023/11/13 05:01:25;;;;;;;13.43;9.30;;;;;;;6.14;82.18;94683.06;5127899;27;20031;-66
2023/11/13 05:03:50;;;;;;;14.60;10.27;;;;;;;6.01;82.65;94671.91;5093976;28;20092;-66
2023/11/13 05:06:16;;;;;;;15.60;10.73;;;;;;;6.13;82.94;94694.31;5111129;28;20145;-66
2023/11/13 05:08:43;;;;;;;15.68;11.52;;;;;;;6.06;83.12;94693.06;5093981;28;20035;-66
2023/11/13 05:11:19;;;;;;;17.50;12.77;;;;;;;6.09;83.08;94698.00;5094175;28;20482;-66
2023/11/13 05:13:44;;;;;;;18.17;11.27;;;;;;;6.15;82.90;94707.09;5112081;28;20023;-66
2023/11/13 05:16:17;;;;;;;19.73;14.15;;;;;;;6.15;82.83;94705.34;5094005;28;20050;-66
2023/11/13 05:18:42;;;;;;;19.63;13.65;;;;;;;6.14;83.76;94719.16;5094066;28;20034;-66
2023/11/13 05:21:08;;;;;;;16.92;12.02;;;;;;;6.19;83.50;94719.69;5111934;28;20024;-66
2023/11/13 05:23:33;;;;;;;19.17;13.00;;;;;;;6.32;83.38;94729.19;5092193;28;20429;-66
2023/11/13 05:25:59;;;;;;;20.23;13.82;;;;;;;6.23;82.73;94712.56;5092024;28;20036;-67
2023/11/13 05:28:24;;;;;;;20.15;12.38;;;;;;;6.22;83.89;94734.97;5109675;28;20042;-66
2023/11/13 05:30:50;;;;;;;21.40;13.05;;;;;;;6.37;83.70;94743.41;5110255;28;20028;-67
2023/11/13 05:33:15;;;;;;;19.55;13.85;;;;;;;6.47;83.27;94749.63;5093306;28;20035;-67
2023/11/13 05:35:40;;;;;;;19.20;14.38;;;;;;;6.55;82.64;94748.28;5127277;27;20382;-67
2023/11/13 05:38:06;;;;;;;21.73;14.55;;;;;;;6.59;82.21;94752.28;5104906;28;20027;-67
2023/11/13 05:40:31;;;;;;;23.63;15.30;;;;;;;6.57;82.39;94754.97;5104105;28;20031;-67
2023/11/13 05:42:57;;;;;;;21.50;14.90;;;;;;;6.59;82.69;94758.28;5071700;28;20317;-67
2023/11/13 05:45:22;;;;;;;20.38;13.27;;;;;;;6.70;82.34;94768.69;5107469;28;20043;-66
2023/11/13 05:47:47;;;;;;;20.40;14.88;;;;;;;6.76;81.92;94769.22;5106933;28;20047;-67
2023/11/13 05:50:13;;;;;;;22.10;14.88;;;;;;;6.81;81.70;94777.47;5107333;27;20023;-67
2023/11/13 05:52:38;;;;;;;20.70;14.80;;;;;;;6.71;82.24;94774.69;5090389;28;20040;-66
2023/11/13 05:55:05;;;;;;;23.90;16.45;;;;;;;6.72;82.31;94772.00;5106687;28;20020;-67
2023/11/13 05:57:31;;;;;;;24.63;16.65;;;;;;;6.65;82.59;94759.63;5106296;28;20036;-67
2023/11/13 05:59:56;;;;;;;25.67;17.17;;;;;;;6.68;82.59;94764.56;5087651;28;20026;-67
2023/11/13 06:02:22;;;;;;;25.02;17.25;;;;;;;6.75;83.16;94770.16;5105576;28;20027;-67
2023/11/13 06:04:48;;;;;;;24.38;16.30;;;;;;;6.66;83.20;94758.69;5088787;28;20059;-67
2023/11/13 06:07:14;;;;;;;28.23;17.65;;;;;;;6.85;82.65;94766.00;5073176;28;20031;-66
2023/11/13 06:09:42;;;;;;;26.40;17.58;;;;;;;6.82;82.79;94755.88;5104139;28;20482;-67
2023/11/13 06:12:09;;;;;;;26.17;17.25;;;;;;;6.70;83.01;94753.22;5106240;28;20114;-67
2023/11/13 06:14:36;;;;;;;24.17;17.15;;;;;;;6.60;83.62;94753.94;5088544;28;20408;-67
2023/11/13 06:17:02;;;;;;;29.77;17.70;;;;;;;6.78;82.29;94755.28;5089082;28;20035;-67
2023/11/13 06:19:27;;;;;;;25.92;17.30;;;;;;;6.72;81.72;94755.69;5087575;28;20042;-67
2023/11/13 06:21:53;;;;;;;26.92;17.20;;;;;;;6.81;81.79;94760.22;5089521;28;20125;-67
2023/11/13 06:24:19;;;;;;;20.98;14.18;;;;;;;6.76;81.21;94758.88;5106989;28;20024;-67
2023/11/13 06:26:44;;;;;;;21.52;14.25;;;;;;;6.63;80.79;94756.31;5106243;28;20470;-67
2023/11/13 06:29:11;;;;;;;19.85;13.40;;;;;;;6.35;81.35;94752.19;5087623;28;20035;-67
2023/11/13 06:31:36;;;;;;;19.85;14.02;;;;;;;6.48;81.80;94778.81;5104973;28;20467;-67
2023/11/13 06:34:02;;;;;;;20.15;13.50;;;;;;;6.49;81.60;94788.22;5106864;28;20044;-67
2023/11/13 06:36:28;;;;;;;20.00;14.02;;;;;;;6.47;81.66;94787.50;5088695;28;20024;-67
2023/11/13 06:38:54;;;;;;;18.55;13.27;;;;;;;6.56;81.13;94781.72;5087763;28;20569;-67
2023/11/13 06:41:19;;;;;;;20.13;12.95;;;;;;;6.55;81.59;94779.25;5112431;27;20552;-67
2023/11/13 06:43:44;;;;;;;18.98;12.50;;;;;;;6.68;81.06;94787.81;5110336;28;20048;-67
2023/11/13 06:46:11;;;;;;;22.65;13.85;;;;;;;6.78;80.99;94782.84;5110502;28;20034;-67
2023/11/13 06:48:37;;;;;;;19.45;13.50;;;;;;;6.66;81.17;94769.84;5091584;28;20031;-67
2023/11/13 06:51:03;;;;;;;19.48;12.48;;;;;;;6.71;81.10;94770.38;5111283;28;20038;-67
2023/11/13 06:53:28;;;;;;;15.98;11.00;;;;;;;6.75;81.62;94781.31;5110032;28;20035;-67
2023/11/13 06:55:54;;;;;;;15.35;9.63;;;;;;;6.76;80.73;94759.72;5108667;28;20128;-67
2023/11/13 06:58:22;;;;;;;12.95;9.25;;;;;;;6.80;80.87;94765.47;5109286;28;20028;-67
2023/11/13 07:00:49;;;;;;;15.40;10.50;;;;;;;6.60;81.25;94752.19;5092273;28;20023;-67
2023/11/13 07:03:14;;;;;;;13.88;9.80;;;;;;;6.74;81.82;94765.91;5091600;28;20028;-67
2023/11/13 07:05:41;;;;;;;13.38;8.98;;;;;;;6.87;81.85;94764.13;5092156;28;20059;-67
2023/11/13 07:08:06;;;;;;;14.02;8.95;;;;;;;6.71;81.64;94720.47;5090378;28;20744;-67
2023/11/13 07:10:35;;;;;;;15.02;9.27;;;;;;;6.95;81.75;94754.09;5110709;28;20294;-67
2023/11/13 07:13:01;;;;;;;58.33;25.55;;;;;;;7.19;81.73;94766.22;5109228;28;20520;-67
2023/11/13 07:15:26;;;;;;;33.00;23.13;;;;;;;7.13;81.61;94758.00;5109443;28;20016;-67
2023/11/13 07:17:52;;;;;;;28.52;19.42;;;;;;;7.11;81.45;94736.59;5108995;27;20035;-67
2023/11/13 07:20:18;;;;;;;26.02;18.00;;;;;;;7.03;81.90;94744.06;5092352;28;20481;-67
2023/11/13 07:22:45;;;;;;;27.10;17.50;;;;;;;7.28;81.74;94734.59;5093612;28;20409;-67
2023/11/13 07:25:10;;;;;;;28.02;18.85;;;;;;;7.30;81.63;94727.53;5092406;28;20023;-67
2023/11/13 07:27:36;;;;;;;27.13;18.20;;;;;;;7.66;81.75;94718.91;5109369;28;20084;-67
2023/11/13 07:30:02;;;;;;;26.48;19.63;;;;;;;7.94;80.35;94720.31;5110606;28;20024;-71
2023/11/13 07:32:28;;;;;;;27.88;19.02;;;;;;;9.23;76.42;94728.63;5107799;27;20085;-66
2023/11/13 07:34:53;;;;;;;22.17;15.70;;;;;;;9.36;74.36;94734.50;5103948;28;20076;-70
2023/11/13 07:37:20;;;;;;;19.30;12.93;;;;;;;10.35;70.00;94723.97;5075586;28;20028;-67
2023/11/13 07:39:48;;;;;;;21.27;15.32;;;;;;;9.93;70.32;94734.28;5091842;28;20173;-67
2023/11/13 07:42:14;;;;;;;20.92;15.05;;;;;;;9.49;71.88;94736.09;5095167;28;20027;-68
2023/11/13 07:44:48;;;;;;;21.42;15.00;;;;;;;9.59;71.43;94737.03;5094552;28;20054;-68
2023/11/13 07:47:15;;;;;;;20.10;14.50;;;;;;;9.34;72.02;94732.97;5094701;28;20084;-68
2023/11/13 07:49:43;;;;;;;15.95;12.10;;;;;;;10.00;69.36;94735.44;5109667;28;20020;-67
2023/11/13 07:52:12;;;;;;;19.90;14.32;;;;;;;9.17;72.27;94726.53;5092337;28;20032;-68
2023/11/13 07:54:41;;;;;;;21.80;15.07;;;;;;;9.15;73.50;94731.00;5093564;28;20089;-68
2023/11/13 07:57:10;;;;;;;24.27;17.20;;;;;;;8.89;74.44;94748.56;5095351;28;20038;-68
2023/11/13 07:59:36;;;;;;;22.50;15.82;;;;;;;8.84;74.97;94750.69;5095041;28;20051;-67
2023/11/13 08:02:01;;;;;;;19.88;14.98;;;;;;;9.01;74.30;94736.44;5095175;28;20066;-67
2023/11/13 08:04:27;;;;;;;21.25;14.35;;;;;;;8.78;74.52;94757.16;5095162;28;20452;-67
2023/11/13 08:06:53;;;;;;;19.73;14.20;;;;;;;8.66;75.19;94763.25;5110105;28;20031;-67
2023/11/13 08:09:20;;;;;;;18.75;12.20;;;;;;;8.90;73.55;94769.16;5078306;28;20493;-68
2023/11/13 08:11:46;;;;;;;19.02;13.25;;;;;;;8.85;74.43;94757.50;5112272;28;20082;-67
2023/11/13 08:14:13;;;;;;;19.77;13.35;;;;;;;8.67;75.17;94754.56;5111998;28;20417;-68
2023/11/13 08:16:39;;;;;;;21.63;14.27;;;;;;;8.76;74.89;94759.03;5095454;28;20027;-67
2023/11/13 08:19:04;;;;;;;19.27;13.77;;;;;;;8.68;74.65;94740.69;5095141;28;20031;-67
2023/11/13 08:21:31;;;;;;;19.60;13.60;;;;;;;8.59;75.36;94755.16;5095213;28;20035;-67
2023/11/13 08:23:57;;;;;;;20.63;13.85;;;;;;;8.37;76.00;94747.31;5113156;28;20220;-67
2023/11/13 08:26:28;;;;;;;19.10;13.95;;;;;;;8.45;75.72;94730.31;5095158;28;20019;-68
2023/11/13 08:28:54;;;;;;;22.33;15.10;;;;;;;8.37;76.20;94742.97;5095821;28;20413;-67
2023/11/13 08:31:21;;;;;;;21.90;14.50;;;;;;;8.43;76.27;94736.53;5111744;28;20032;-68
2023/11/13 08:33:47;;;;;;;18.65;13.50;;;;;;;7.99;76.17;94655.28;5111580;28;20441;-68
2023/11/13 08:36:15;;;;;;;20.95;14.82;;;;;;;8.82;75.51;94732.66;5094847;28;20034;-67
2023/11/13 08:38:42;;;;;;;17.35;12.48;;;;;;;8.79;75.27;94740.69;5112677;28;20561;-67
2023/11/13 08:41:08;;;;;;;17.00;11.95;;;;;;;8.85;74.51;94734.19;5094879;28;20031;-67
2023/11/13 08:43:34;;;;;;;18.88;11.63;;;;;;;8.82;74.20;94732.66;5112530;28;20050;-67
2023/11/13 08:45:59;;;;;;;15.25;11.38;;;;;;;8.88;73.57;94731.38;5111571;28;20028;-67
2023/11/13 08:48:25;;;;;;;15.82;10.52;;;;;;;8.92;72.83;94725.84;5111318;28;20513;-68
2023/11/13 08:50:53;;;;;;;14.15;10.50;;;;;;;9.22;72.62;94727.00;5111335;28;20031;-68
2023/11/13 08:53:19;;;;;;;14.88;9.80;;;;;;;9.32;71.20;94727.88;5078122;28;20032;-67
2023/11/13 08:55:44;;;;;;;11.55;9.15;;;;;;;9.39;71.25;94723.06;5112604;28;20497;-68
2023/11/13 08:58:10;;;;;;;12.65;9.15;;;;;;;9.38;70.86;94739.53;5094183;28;20027;-68
2023/11/13 09:00:44;;;;;;;14.25;9.57;;;;;;;9.69;70.37;94722.34;5111157;28;20028;-68
2023/11/13 09:03:09;;;;;;;14.43;9.52;;;;;;;9.95;68.67;94730.63;5110849;28;20063;-67
2023/11/13 09:05:35;;;;;;;12.52;8.93;;;;;;;9.62;69.51;94718.63;5111109;28;20027;-68
2023/11/13 09:08:03;;;;;;;15.18;9.65;;;;;;;9.44;70.22;94722.69;5111081;28;20028;-68
2023/11/13 09:10:29;;;;;;;25.50;11.60;;;;;;;9.56;70.50;94740.69;5094405;28;20470;-67
2023/11/13 09:12:58;;;;;;;18.35;10.20;;;;;;;9.72;70.15;94747.22;5112204;28;20032;-67
2023/11/13 09:15:28;;;;;;;34.20;12.95;;;;;;;9.72;69.53;94747.22;5110906;28;20033;-68
2023/11/13 09:17:54;;;;;;;11.85;7.85;;;;;;;9.83;68.58;94748.03;5094546;28;20043;-67
2023/11/13 09:20:21;;;;;;;12.52;8.07;;;;;;;9.91;68.73;94749.16;5110961;28;20026;-67
2023/11/13 09:22:47;;;;;;;11.90;8.05;;;;;;;9.87;69.10;94752.97;5093843;28;20173;-67
2023/11/13 09:25:14;;;;;;;12.00;9.10;;;;;;;9.81;69.25;94749.91;5110813;28;20107;-67
2023/11/13 09:27:48;;;;;;;14.15;9.57;;;;;;;9.56;70.46;94742.47;5093911;28;20031;-67
2023/11/13 09:30:18;;;;;;;13.00;8.55;;;;;;;9.84;69.58;94749.66;5110599;28;20082;-67
2023/11/13 09:32:48;;;;;;;14.73;9.35;;;;;;;9.83;70.13;94758.41;5110668;28;20043;-67
2023/11/13 09:35:19;;;;;;;16.40;10.27;;;;;;;10.05;68.88;94760.06;5093880;28;20034;-67
2023/11/13 09:37:52;;;;;;;12.83;9.27;;;;;;;9.83;68.94;94761.00;5110608;28;20035;-67
2023/11/13 09:40:25;;;;;;;16.10;9.38;;;;;;;9.95;67.58;94764.38;5093526;28;20523;-67
2023/11/13 09:42:54;;;;;;;12.30;9.05;;;;;;;10.05;66.91;94761.84;5110525;28;20039;-68
2023/11/13 09:45:20;;;;;;;13.15;7.80;;;;;;;10.06;67.66;94766.09;5110607;28;20100;-68
2023/11/13 09:47:46;;;;;;;13.57;9.23;;;;;;;9.76;67.84;94753.81;5093455;28;20028;-67
2023/11/13 09:50:16;;;;;;;11.48;8.63;;;;;;;9.90;68.43;94766.50;5093413;28;20035;-67
2023/11/13 09:52:46;;;;;;;13.02;9.57;;;;;;;9.74;68.12;94756.53;5093700;28;20035;-66
2023/11/13 09:55:13;;;;;;;16.00;9.23;;;;;;;10.00;68.55;94775.19;5093724;28;20062;-67
2023/11/13 09:57:41;;;;;;;11.82;8.85;;;;;;;9.78;67.99;94755.34;5110251;28;20031;-67
2023/11/13 10:00:16;;;;;;;12.05;8.25;;;;;;;9.95;67.57;94784.31;5093491;28;20489;-67
2023/11/13 10:02:48;;;;;;;14.27;10.05;;;;;;;9.85;67.89;94771.25;5110245;28;20126;-67
2023/11/13 10:05:19;;;;;;;18.75;12.50;;;;;;;9.97;67.68;94775.44;5094077;28;20028;-67
2023/11/13 10:07:47;;;;;;;17.90;12.63;;;;;;;10.32;67.27;94789.94;5093438;28;20035;-67
2023/11/13 10:10:17;;;;;;;21.48;13.60;;;;;;;10.34;66.92;94784.63;5093197;28;20051;-67
2023/11/13 10:12:43;;;;;;;17.45;12.63;;;;;;;10.24;67.49;94780.16;5093838;28;20031;-67
2023/11/13 10:15:12;;;;;;;18.80;12.50;;;;;;;10.44;66.38;94785.50;5109188;28;20035;-67
2023/11/13 10:17:45;;;;;;;18.10;12.52;;;;;;;10.43;66.94;94776.91;5110011;28;20027;-67
2023/11/13 10:20:11;;;;;;;18.77;13.05;;;;;;;10.26;66.95;94773.06;5093523;28;20509;-66
2023/11/13 10:22:37;;;;;;;19.48;13.07;;;;;;;10.22;67.19;94765.66;5108330;28;20147;-67
2023/11/13 10:25:05;;;;;;;18.83;13.25;;;;;;;10.42;66.75;94764.03;5107751;28;20023;-67
2023/11/13 10:27:32;;;;;;;19.88;13.57;;;;;;;10.51;66.47;94747.69;5109136;28;20551;-67
2023/11/13 10:30:04;;;;;;;18.08;13.23;;;;;;;10.51;65.89;94758.09;5107839;28;20024;-66
2023/11/13 10:32:30;;;;;;;20.10;13.20;;;;;;;10.61;65.84;94742.53;5090683;28;20032;-67
2023/11/13 10:34:56;;;;;;;17.88;12.45;;;;;;;10.71;66.28;94739.03;5107857;28;20414;-67
2023/11/13 10:37:22;;;;;;;21.38;13.73;;;;;;;10.80;65.79;94731.41;5091498;28;20024;-67
2023/11/13 10:39:47;;;;;;;19.17;13.93;;;;;;;10.45;65.34;94717.88;5109765;28;20051;-67
2023/11/13 10:42:22;;;;;;;20.52;13.82;;;;;;;10.71;66.04;94735.63;5092995;28;20406;-67
2023/11/13 10:44:52;;;;;;;19.70;13.50;;;;;;;10.41;65.28;94731.22;5109698;28;20048;-68
2023/11/13 10:47:30;;;;;;;18.75;14.25;;;;;;;10.24;66.06;94717.03;5093249;28;20034;-67
2023/11/13 10:49:56;;;;;;;17.38;12.48;;;;;;;10.42;65.87;94714.69;5109773;28;20030;-67
2023/11/13 10:52:23;;;;;;;18.17;12.40;;;;;;;10.88;66.28;94716.00;5092746;28;20485;-67
2023/11/13 10:54:50;;;;;;;17.48;12.23;;;;;;;11.03;63.99;94721.66;5092800;28;20036;-67
2023/11/13 10:57:16;;;;;;;18.88;13.02;;;;;;;10.83;63.79;94739.78;5092920;28;20028;-67
2023/11/13 10:59:42;;;;;;;19.95;12.93;;;;;;;10.98;63.30;94742.88;5109562;28;20097;-67
2023/11/13 11:02:21;;;;;;;17.00;12.25;;;;;;;11.15;63.46;94746.63;5109883;28;20032;-67
2023/11/13 11:04:47;;;;;;;17.48;12.27;;;;;;;10.80;62.90;94731.41;5093398;28;20164;-67
2023/11/13 11:07:13;;;;;;;17.48;11.95;;;;;;;11.21;62.92;94753.06;5092941;28;20035;-67
2023/11/13 11:09:40;;;;;;;19.73;12.65;;;;;;;11.07;62.89;94734.28;5092537;28;20027;-67
2023/11/13 11:12:07;;;;;;;16.88;11.90;;;;;;;11.36;63.56;94746.53;5092876;28;20024;-67
2023/11/13 11:14:47;;;;;;;18.85;11.95;;;;;;;11.01;64.04;94742.59;5092725;28;20036;-67
2023/11/13 11:17:23;;;;;;;16.02;10.88;;;;;;;11.25;62.36;94725.81;5093652;28;20478;-67
2023/11/13 11:19:48;;;;;;;14.02;10.23;;;;;;;11.67;61.71;94749.03;5076513;28;20555;-67
2023/11/13 11:22:22;;;;;;;14.18;10.63;;;;;;;11.68;60.54;94732.50;5092598;28;20137;-67